Ajo, AZ

1:25 AM MST on August 28, 2014 (GMT -0700)
Casa Grande Municipal | Change Station
CLOSE
Current Station
Airport
Location: Casa Grande,
Elevation: 1463 ft
Nearby Weather Stations

Elev 1463 ft 32.95 °N, 111.77 °W | Updated 10 minutes ago

Clear
Clear
82 °F
Feels Like 82 °F
N
0
Wind Variable Wind from North

Today
High -- | Low -- °F
--% Chance of Precip.
Yesterday
High -- | Low -- °F
Precip. -- in
6:03 AM 7:00 PM
Waxing Crescent, 7% visible
Pressure 29.96 in
Visibility 10.0 miles
Clouds Clear
Heat Index 82 °F
Dew Point 55 °F
Humidity 39%
Rainfall 0.00 in
Snow Depth Not available.
UV 0 out of 12
Pollen 5.00 out of 12
Air Quality Not available.
Flu Activity Not available.
METAR KCGZ 280815Z AUTO 00000KT 10SM CLR 28/13 A2996 RMK AO1

More Conditions Fewer Conditions

Pressure 29.96 in
Visibility 10.0 miles
Clouds Clear
Heat Index 82 °F
Dew Point 55 °F
Humidity 39%
Rainfall 0.00 in
Snow Depth Not available.
UV 0 out of 12
Pollen 5.00 out of 12
Air Quality Not available.
Flu Activity Not available.
METAR KCGZ 280815Z AUTO 00000KT 10SM CLR 28/13 A2996 RMK AO1

More Conditions Fewer Conditions

10-Day Weather Forecast

Almanac

Astronomy

Aug. 28, 2014 Rise Set
Actual Time 6:03 AM MST 7:00 PM MST
Civil Twilight 5:38 AM MST 7:25 PM MST
Nautical Twilight 5:08 AM MST 7:55 PM MST
Astronomical Twilight 4:38 AM MST 8:26 PM MST
Moon 8:47 AM MST 8:40 PM MST
Length of Visible Light 13h 47m
Length of Day
12h 56m
Tomorrow will be 1m 53s shorter.
Waxing Crescent, 7% of the Moon is Illuminated
Today
Waxing Crescent
Sep 2
First Quarter
Sep 8
Full
Sep 15
Last Quarter
Sep 24
New

Today's Extremes

State Highs State Lows

Community

WunderPhotos

Upload Photos

1,747,918 photos uploaded!

Nearby

Snow Depth

Station Depth Elevation
Workman Creek 1 in 6900 ft
Promontory 0 in 7930 ft
Heber 0 in 7640 ft
Mormon Mountain 0 in 7500 ft
White Horse Lake 0 in 7180 ft

Earthquake Activity

City Distance Mag. Time & Date
No recent earthquake activity has been reported nearby.
Minimum magnitude displayed is 2.5.

Coastal Water Temperatures

Place Temperature
No Stations Reporting

Nearby Weather Stations